sensor_id;sensor_type;location;lat;lon;timestamp;P1;durP1;ratioP1;P2;durP2;ratioP2
53714;SDS011;39608;55.630;37.864;2024-01-27T00:01:18;43.28;;;21.48;;
53714;SDS011;39608;55.630;37.864;2024-01-27T00:06:22;42.08;;;21.00;;
53714;SDS011;39608;55.630;37.864;2024-01-27T00:11:24;38.60;;;20.73;;
53714;SDS011;39608;55.630;37.864;2024-01-27T00:16:26;42.03;;;21.75;;
53714;SDS011;39608;55.630;37.864;2024-01-27T00:21:29;37.55;;;23.00;;
53714;SDS011;39608;55.630;37.864;2024-01-27T00:26:31;36.47;;;22.30;;
53714;SDS011;39608;55.630;37.864;2024-01-27T00:31:33;35.83;;;22.30;;
53714;SDS011;39608;55.630;37.864;2024-01-27T00:36:36;44.20;;;21.80;;
53714;SDS011;39608;55.630;37.864;2024-01-27T00:41:38;43.70;;;22.05;;
53714;SDS011;39608;55.630;37.864;2024-01-27T00:46:40;42.78;;;22.83;;
53714;SDS011;39608;55.630;37.864;2024-01-27T00:51:44;44.75;;;23.55;;
53714;SDS011;39608;55.630;37.864;2024-01-27T00:56:46;52.53;;;25.58;;
53714;SDS011;39608;55.630;37.864;2024-01-27T01:01:48;45.53;;;24.00;;
53714;SDS011;39608;55.630;37.864;2024-01-27T01:06:52;44.20;;;24.13;;
53714;SDS011;39608;55.630;37.864;2024-01-27T01:11:54;42.17;;;22.15;;
53714;SDS011;39608;55.630;37.864;2024-01-27T01:16:56;43.20;;;21.73;;
53714;SDS011;39608;55.630;37.864;2024-01-27T01:22:00;36.65;;;20.65;;
53714;SDS011;39608;55.630;37.864;2024-01-27T01:27:02;41.58;;;22.67;;
53714;SDS011;39608;55.630;37.864;2024-01-27T01:32:04;36.80;;;21.30;;
53714;SDS011;39608;55.630;37.864;2024-01-27T01:37:08;34.83;;;20.10;;
53714;SDS011;39608;55.630;37.864;2024-01-27T01:42:10;37.92;;;21.08;;
53714;SDS011;39608;55.630;37.864;2024-01-27T01:47:12;46.22;;;22.48;;
53714;SDS011;39608;55.630;37.864;2024-01-27T01:52:15;43.30;;;22.35;;
53714;SDS011;39608;55.630;37.864;2024-01-27T01:57:20;46.95;;;23.05;;
53714;SDS011;39608;55.630;37.864;2024-01-27T02:02:22;69.32;;;23.17;;
53714;SDS011;39608;55.630;37.864;2024-01-27T02:07:25;46.70;;;22.50;;
53714;SDS011;39608;55.630;37.864;2024-01-27T02:12:27;45.58;;;23.60;;
53714;SDS011;39608;55.630;37.864;2024-01-27T02:17:29;57.65;;;23.23;;
53714;SDS011;39608;55.630;37.864;2024-01-27T02:22:32;50.05;;;24.80;;
53714;SDS011;39608;55.630;37.864;2024-01-27T02:27:36;56.95;;;23.30;;
53714;SDS011;39608;55.630;37.864;2024-01-27T02:32:38;45.25;;;22.35;;
53714;SDS011;39608;55.630;37.864;2024-01-27T02:37:40;55.85;;;23.55;;
53714;SDS011;39608;55.630;37.864;2024-01-27T02:42:43;42.35;;;21.48;;
53714;SDS011;39608;55.630;37.864;2024-01-27T02:47:45;36.92;;;19.33;;
53714;SDS011;39608;55.630;37.864;2024-01-27T02:52:47;33.78;;;17.70;;
53714;SDS011;39608;55.630;37.864;2024-01-27T02:57:51;33.58;;;18.75;;
53714;SDS011;39608;55.630;37.864;2024-01-27T03:02:53;33.10;;;18.20;;
53714;SDS011;39608;55.630;37.864;2024-01-27T03:07:57;33.92;;;17.42;;
53714;SDS011;39608;55.630;37.864;2024-01-27T03:13:00;31.98;;;17.52;;
53714;SDS011;39608;55.630;37.864;2024-01-27T03:18:03;30.15;;;17.13;;
53714;SDS011;39608;55.630;37.864;2024-01-27T03:23:05;32.08;;;17.50;;
53714;SDS011;39608;55.630;37.864;2024-01-27T03:28:09;28.20;;;16.08;;
53714;SDS011;39608;55.630;37.864;2024-01-27T03:33:11;31.67;;;16.75;;
53714;SDS011;39608;55.630;37.864;2024-01-27T03:38:13;33.13;;;16.13;;
53714;SDS011;39608;55.630;37.864;2024-01-27T03:43:16;28.88;;;15.68;;
53714;SDS011;39608;55.630;37.864;2024-01-27T03:48:18;24.83;;;15.45;;
53714;SDS011;39608;55.630;37.864;2024-01-27T03:53:20;29.38;;;16.83;;
53714;SDS011;39608;55.630;37.864;2024-01-27T03:58:23;28.20;;;16.92;;
53714;SDS011;39608;55.630;37.864;2024-01-27T04:03:25;25.58;;;16.77;;
53714;SDS011;39608;55.630;37.864;2024-01-27T04:08:28;31.10;;;16.08;;
53714;SDS011;39608;55.630;37.864;2024-01-27T04:13:32;27.90;;;17.30;;
53714;SDS011;39608;55.630;37.864;2024-01-27T04:18:35;28.33;;;15.38;;
53714;SDS011;39608;55.630;37.864;2024-01-27T04:23:37;35.38;;;17.98;;
53714;SDS011;39608;55.630;37.864;2024-01-27T04:28:40;27.38;;;15.98;;
53714;SDS011;39608;55.630;37.864;2024-01-27T04:33:42;27.80;;;15.70;;
53714;SDS011;39608;55.630;37.864;2024-01-27T04:38:44;25.98;;;15.55;;
53714;SDS011;39608;55.630;37.864;2024-01-27T04:43:48;28.90;;;16.40;;
53714;SDS011;39608;55.630;37.864;2024-01-27T04:48:50;31.52;;;16.70;;
53714;SDS011;39608;55.630;37.864;2024-01-27T04:53:52;27.30;;;16.17;;
53714;SDS011;39608;55.630;37.864;2024-01-27T04:58:55;25.75;;;15.80;;
53714;SDS011;39608;55.630;37.864;2024-01-27T05:03:57;25.15;;;14.93;;
53714;SDS011;39608;55.630;37.864;2024-01-27T05:08:59;25.10;;;15.07;;
53714;SDS011;39608;55.630;37.864;2024-01-27T05:14:03;26.50;;;13.85;;
53714;SDS011;39608;55.630;37.864;2024-01-27T05:19:06;22.15;;;13.55;;
53714;SDS011;39608;55.630;37.864;2024-01-27T05:24:08;21.88;;;12.95;;
53714;SDS011;39608;55.630;37.864;2024-01-27T05:29:12;20.55;;;11.45;;
53714;SDS011;39608;55.630;37.864;2024-01-27T05:34:14;21.10;;;12.35;;
53714;SDS011;39608;55.630;37.864;2024-01-27T05:39:16;24.23;;;12.70;;
53714;SDS011;39608;55.630;37.864;2024-01-27T05:44:19;22.88;;;13.40;;
53714;SDS011;39608;55.630;37.864;2024-01-27T05:49:21;25.08;;;14.05;;
53714;SDS011;39608;55.630;37.864;2024-01-27T05:54:23;23.75;;;13.85;;
53714;SDS011;39608;55.630;37.864;2024-01-27T05:59:27;27.48;;;16.45;;
53714;SDS011;39608;55.630;37.864;2024-01-27T06:04:29;33.05;;;16.55;;
53714;SDS011;39608;55.630;37.864;2024-01-27T06:09:31;26.60;;;15.25;;
53714;SDS011;39608;55.630;37.864;2024-01-27T06:14:34;29.95;;;15.95;;
53714;SDS011;39608;55.630;37.864;2024-01-27T06:19:37;23.90;;;15.10;;
53714;SDS011;39608;55.630;37.864;2024-01-27T06:24:41;27.38;;;15.75;;
53714;SDS011;39608;55.630;37.864;2024-01-27T06:29:48;27.55;;;15.57;;
53714;SDS011;39608;55.630;37.864;2024-01-27T06:34:50;23.25;;;14.30;;
53714;SDS011;39608;55.630;37.864;2024-01-27T06:39:52;28.00;;;15.07;;
53714;SDS011;39608;55.630;37.864;2024-01-27T06:44:55;26.67;;;14.85;;
53714;SDS011;39608;55.630;37.864;2024-01-27T06:49:57;26.40;;;13.65;;
53714;SDS011;39608;55.630;37.864;2024-01-27T06:54:59;24.08;;;13.23;;
53714;SDS011;39608;55.630;37.864;2024-01-27T07:00:03;23.58;;;13.88;;
53714;SDS011;39608;55.630;37.864;2024-01-27T07:05:06;25.48;;;14.63;;
53714;SDS011;39608;55.630;37.864;2024-01-27T07:10:09;33.72;;;14.32;;
53714;SDS011;39608;55.630;37.864;2024-01-27T07:15:12;24.02;;;13.75;;
53714;SDS011;39608;55.630;37.864;2024-01-27T07:20:14;23.48;;;13.32;;
53714;SDS011;39608;55.630;37.864;2024-01-27T07:25:17;26.83;;;13.45;;
53714;SDS011;39608;55.630;37.864;2024-01-27T07:30:20;20.92;;;13.32;;
53714;SDS011;39608;55.630;37.864;2024-01-27T07:35:22;22.08;;;13.05;;
53714;SDS011;39608;55.630;37.864;2024-01-27T07:40:24;23.98;;;14.40;;
53714;SDS011;39608;55.630;37.864;2024-01-27T07:45:27;25.50;;;14.95;;
53714;SDS011;39608;55.630;37.864;2024-01-27T07:50:30;23.73;;;13.50;;
53714;SDS011;39608;55.630;37.864;2024-01-27T07:55:32;22.13;;;13.80;;
53714;SDS011;39608;55.630;37.864;2024-01-27T08:00:35;24.20;;;12.90;;
53714;SDS011;39608;55.630;37.864;2024-01-27T08:05:38;25.67;;;14.82;;
53714;SDS011;39608;55.630;37.864;2024-01-27T08:10:40;28.42;;;15.25;;
53714;SDS011;39608;55.630;37.864;2024-01-27T08:15:43;25.27;;;14.50;;
53714;SDS011;39608;55.630;37.864;2024-01-27T08:20:45;23.27;;;14.18;;
53714;SDS011;39608;55.630;37.864;2024-01-27T08:25:47;22.17;;;13.05;;
53714;SDS011;39608;55.630;37.864;2024-01-27T08:30:54;28.55;;;14.18;;
53714;SDS011;39608;55.630;37.864;2024-01-27T08:35:56;25.33;;;13.73;;
53714;SDS011;39608;55.630;37.864;2024-01-27T08:40:58;32.65;;;14.95;;
53714;SDS011;39608;55.630;37.864;2024-01-27T08:46:01;29.60;;;16.20;;
53714;SDS011;39608;55.630;37.864;2024-01-27T08:51:03;30.75;;;16.65;;
53714;SDS011;39608;55.630;37.864;2024-01-27T08:56:06;25.50;;;14.93;;
53714;SDS011;39608;55.630;37.864;2024-01-27T09:01:09;28.15;;;16.65;;
53714;SDS011;39608;55.630;37.864;2024-01-27T09:06:13;26.55;;;14.57;;
53714;SDS011;39608;55.630;37.864;2024-01-27T09:11:15;33.20;;;15.35;;
53714;SDS011;39608;55.630;37.864;2024-01-27T09:16:18;30.45;;;17.85;;
53714;SDS011;39608;55.630;37.864;2024-01-27T09:21:20;29.35;;;16.48;;
53714;SDS011;39608;55.630;37.864;2024-01-27T09:26:28;33.88;;;17.23;;
53714;SDS011;39608;55.630;37.864;2024-01-27T09:31:31;26.98;;;16.48;;
53714;SDS011;39608;55.630;37.864;2024-01-27T09:36:33;27.80;;;15.85;;
53714;SDS011;39608;55.630;37.864;2024-01-27T09:41:35;33.03;;;16.27;;
53714;SDS011;39608;55.630;37.864;2024-01-27T09:46:40;31.90;;;16.00;;
53714;SDS011;39608;55.630;37.864;2024-01-27T09:51:42;29.52;;;15.95;;
53714;SDS011;39608;55.630;37.864;2024-01-27T09:56:45;34.03;;;17.40;;
53714;SDS011;39608;55.630;37.864;2024-01-27T10:01:49;33.17;;;17.40;;
53714;SDS011;39608;55.630;37.864;2024-01-27T10:06:52;29.35;;;18.13;;
53714;SDS011;39608;55.630;37.864;2024-01-27T10:11:54;31.77;;;18.95;;
53714;SDS011;39608;55.630;37.864;2024-01-27T10:16:59;35.80;;;19.52;;
53714;SDS011;39608;55.630;37.864;2024-01-27T10:22:01;40.60;;;18.63;;
53714;SDS011;39608;55.630;37.864;2024-01-27T10:27:03;31.98;;;18.58;;
53714;SDS011;39608;55.630;37.864;2024-01-27T10:32:11;36.05;;;18.98;;
53714;SDS011;39608;55.630;37.864;2024-01-27T10:37:13;31.90;;;18.55;;
53714;SDS011;39608;55.630;37.864;2024-01-27T10:42:15;27.90;;;17.73;;
53714;SDS011;39608;55.630;37.864;2024-01-27T10:47:20;28.70;;;17.27;;
53714;SDS011;39608;55.630;37.864;2024-01-27T10:52:24;29.60;;;17.10;;
53714;SDS011;39608;55.630;37.864;2024-01-27T10:57:29;32.15;;;18.27;;
53714;SDS011;39608;55.630;37.864;2024-01-27T11:02:34;34.67;;;20.58;;
53714;SDS011;39608;55.630;37.864;2024-01-27T11:07:37;39.53;;;21.55;;
53714;SDS011;39608;55.630;37.864;2024-01-27T11:12:40;37.50;;;21.25;;
53714;SDS011;39608;55.630;37.864;2024-01-27T11:17:44;36.25;;;20.60;;
53714;SDS011;39608;55.630;37.864;2024-01-27T11:22:47;34.67;;;20.35;;
53714;SDS011;39608;55.630;37.864;2024-01-27T11:27:50;35.50;;;20.45;;
53714;SDS011;39608;55.630;37.864;2024-01-27T11:32:54;30.77;;;20.50;;
53714;SDS011;39608;55.630;37.864;2024-01-27T11:37:57;26.92;;;18.50;;
53714;SDS011;39608;55.630;37.864;2024-01-27T11:43:00;28.83;;;18.17;;
53714;SDS011;39608;55.630;37.864;2024-01-27T11:48:04;31.05;;;17.80;;
53714;SDS011;39608;55.630;37.864;2024-01-27T11:53:07;28.73;;;16.95;;
53714;SDS011;39608;55.630;37.864;2024-01-27T11:58:11;24.95;;;15.38;;
53714;SDS011;39608;55.630;37.864;2024-01-27T12:03:15;32.90;;;16.80;;
53714;SDS011;39608;55.630;37.864;2024-01-27T12:08:20;26.55;;;15.57;;
53714;SDS011;39608;55.630;37.864;2024-01-27T12:13:22;24.77;;;14.70;;
53714;SDS011;39608;55.630;37.864;2024-01-27T12:18:25;26.27;;;14.85;;
53714;SDS011;39608;55.630;37.864;2024-01-27T12:23:29;23.60;;;13.73;;
53714;SDS011;39608;55.630;37.864;2024-01-27T12:28:31;25.85;;;14.65;;
53714;SDS011;39608;55.630;37.864;2024-01-27T12:33:39;26.00;;;15.43;;
53714;SDS011;39608;55.630;37.864;2024-01-27T12:38:42;26.98;;;15.00;;
53714;SDS011;39608;55.630;37.864;2024-01-27T12:43:44;26.45;;;14.75;;
53714;SDS011;39608;55.630;37.864;2024-01-27T12:48:47;28.13;;;15.13;;
53714;SDS011;39608;55.630;37.864;2024-01-27T12:53:49;34.95;;;14.10;;
53714;SDS011;39608;55.630;37.864;2024-01-27T12:58:51;28.02;;;15.50;;
53714;SDS011;39608;55.630;37.864;2024-01-27T13:03:55;26.48;;;15.32;;
53714;SDS011;39608;55.630;37.864;2024-01-27T13:08:57;23.25;;;13.15;;
53714;SDS011;39608;55.630;37.864;2024-01-27T13:13:59;25.42;;;14.80;;
53714;SDS011;39608;55.630;37.864;2024-01-27T13:19:02;29.65;;;14.60;;
53714;SDS011;39608;55.630;37.864;2024-01-27T13:24:04;32.50;;;16.25;;
53714;SDS011;39608;55.630;37.864;2024-01-27T13:29:09;29.20;;;15.00;;
53714;SDS011;39608;55.630;37.864;2024-01-27T13:34:13;28.73;;;14.77;;
53714;SDS011;39608;55.630;37.864;2024-01-27T13:39:17;34.40;;;14.57;;
53714;SDS011;39608;55.630;37.864;2024-01-27T13:44:19;27.88;;;13.52;;
53714;SDS011;39608;55.630;37.864;2024-01-27T13:49:23;33.75;;;15.32;;
53714;SDS011;39608;55.630;37.864;2024-01-27T13:54:25;33.35;;;15.80;;
53714;SDS011;39608;55.630;37.864;2024-01-27T13:59:27;28.55;;;15.70;;
53714;SDS011;39608;55.630;37.864;2024-01-27T14:04:30;30.90;;;14.48;;
53714;SDS011;39608;55.630;37.864;2024-01-27T14:09:34;26.30;;;14.15;;
53714;SDS011;39608;55.630;37.864;2024-01-27T14:14:36;23.33;;;13.10;;
53714;SDS011;39608;55.630;37.864;2024-01-27T14:19:41;40.67;;;20.00;;
53714;SDS011;39608;55.630;37.864;2024-01-27T14:24:43;24.95;;;14.52;;
53714;SDS011;39608;55.630;37.864;2024-01-27T14:29:45;32.20;;;15.20;;
53714;SDS011;39608;55.630;37.864;2024-01-27T14:34:52;27.10;;;13.27;;
53714;SDS011;39608;55.630;37.864;2024-01-27T14:39:54;28.30;;;14.73;;
53714;SDS011;39608;55.630;37.864;2024-01-27T14:44:56;27.15;;;14.60;;
53714;SDS011;39608;55.630;37.864;2024-01-27T14:50:00;30.75;;;16.15;;
53714;SDS011;39608;55.630;37.864;2024-01-27T14:55:04;33.65;;;16.20;;
53714;SDS011;39608;55.630;37.864;2024-01-27T15:00:08;38.70;;;17.80;;
53714;SDS011;39608;55.630;37.864;2024-01-27T15:05:16;30.40;;;16.37;;
53714;SDS011;39608;55.630;37.864;2024-01-27T15:10:19;27.08;;;15.85;;
53714;SDS011;39608;55.630;37.864;2024-01-27T15:15:21;26.38;;;15.50;;
53714;SDS011;39608;55.630;37.864;2024-01-27T15:20:25;26.83;;;15.23;;
53714;SDS011;39608;55.630;37.864;2024-01-27T15:25:27;26.17;;;13.75;;
53714;SDS011;39608;55.630;37.864;2024-01-27T15:30:31;26.80;;;14.27;;
53714;SDS011;39608;55.630;37.864;2024-01-27T15:35:34;29.05;;;15.15;;
53714;SDS011;39608;55.630;37.864;2024-01-27T15:40:37;25.38;;;13.00;;
53714;SDS011;39608;55.630;37.864;2024-01-27T15:45:39;25.38;;;14.63;;
53714;SDS011;39608;55.630;37.864;2024-01-27T15:50:42;26.40;;;14.73;;
53714;SDS011;39608;55.630;37.864;2024-01-27T15:55:44;30.55;;;16.65;;
53714;SDS011;39608;55.630;37.864;2024-01-27T16:00:47;25.92;;;15.15;;
53714;SDS011;39608;55.630;37.864;2024-01-27T16:05:50;25.33;;;15.55;;
53714;SDS011;39608;55.630;37.864;2024-01-27T16:10:52;32.25;;;17.65;;
53714;SDS011;39608;55.630;37.864;2024-01-27T16:15:54;33.95;;;19.85;;
53714;SDS011;39608;55.630;37.864;2024-01-27T16:20:57;32.10;;;18.10;;
53714;SDS011;39608;55.630;37.864;2024-01-27T16:25:59;32.72;;;20.00;;
53714;SDS011;39608;55.630;37.864;2024-01-27T16:31:01;31.50;;;18.85;;
53714;SDS011;39608;55.630;37.864;2024-01-27T16:36:05;31.40;;;18.50;;
53714;SDS011;39608;55.630;37.864;2024-01-27T16:41:07;25.40;;;16.60;;
53714;SDS011;39608;55.630;37.864;2024-01-27T16:46:10;32.03;;;17.85;;
53714;SDS011;39608;55.630;37.864;2024-01-27T16:51:13;31.00;;;18.50;;
53714;SDS011;39608;55.630;37.864;2024-01-27T16:56:15;30.10;;;16.48;;
53714;SDS011;39608;55.630;37.864;2024-01-27T17:01:17;29.65;;;17.23;;
53714;SDS011;39608;55.630;37.864;2024-01-27T17:06:21;30.52;;;16.75;;
53714;SDS011;39608;55.630;37.864;2024-01-27T17:11:23;35.10;;;18.38;;
53714;SDS011;39608;55.630;37.864;2024-01-27T17:16:25;35.17;;;18.48;;
53714;SDS011;39608;55.630;37.864;2024-01-27T17:21:29;34.63;;;18.50;;
53714;SDS011;39608;55.630;37.864;2024-01-27T17:26:31;38.05;;;20.15;;
53714;SDS011;39608;55.630;37.864;2024-01-27T17:31:35;30.08;;;17.08;;
53714;SDS011;39608;55.630;37.864;2024-01-27T17:36:39;34.30;;;19.10;;
53714;SDS011;39608;55.630;37.864;2024-01-27T17:41:40;44.72;;;20.65;;
53714;SDS011;39608;55.630;37.864;2024-01-27T17:46:44;35.28;;;19.90;;
53714;SDS011;39608;55.630;37.864;2024-01-27T17:51:47;40.60;;;21.02;;
53714;SDS011;39608;55.630;37.864;2024-01-27T17:56:49;39.72;;;22.40;;
53714;SDS011;39608;55.630;37.864;2024-01-27T18:01:55;38.35;;;22.50;;
53714;SDS011;39608;55.630;37.864;2024-01-27T18:06:58;41.83;;;22.13;;
53714;SDS011;39608;55.630;37.864;2024-01-27T18:12:00;40.00;;;21.73;;
53714;SDS011;39608;55.630;37.864;2024-01-27T18:17:03;40.53;;;22.40;;
53714;SDS011;39608;55.630;37.864;2024-01-27T18:22:07;35.33;;;20.45;;
53714;SDS011;39608;55.630;37.864;2024-01-27T18:27:09;34.90;;;19.40;;
53714;SDS011;39608;55.630;37.864;2024-01-27T18:32:16;33.53;;;18.60;;
53714;SDS011;39608;55.630;37.864;2024-01-27T18:37:20;35.38;;;19.58;;
53714;SDS011;39608;55.630;37.864;2024-01-27T18:42:23;36.92;;;18.95;;
53714;SDS011;39608;55.630;37.864;2024-01-27T18:47:25;30.98;;;17.92;;
53714;SDS011;39608;55.630;37.864;2024-01-27T18:52:31;39.20;;;18.48;;
53714;SDS011;39608;55.630;37.864;2024-01-27T18:57:33;40.88;;;20.77;;
53714;SDS011;39608;55.630;37.864;2024-01-27T19:02:35;37.42;;;18.92;;
53714;SDS011;39608;55.630;37.864;2024-01-27T19:07:38;35.45;;;17.77;;
53714;SDS011;39608;55.630;37.864;2024-01-27T19:12:40;36.00;;;18.38;;
53714;SDS011;39608;55.630;37.864;2024-01-27T19:17:43;34.60;;;18.70;;
53714;SDS011;39608;55.630;37.864;2024-01-27T19:22:46;38.03;;;19.17;;
53714;SDS011;39608;55.630;37.864;2024-01-27T19:27:50;36.90;;;18.50;;
53714;SDS011;39608;55.630;37.864;2024-01-27T19:32:52;38.85;;;17.95;;
53714;SDS011;39608;55.630;37.864;2024-01-27T19:37:55;40.22;;;20.25;;
53714;SDS011;39608;55.630;37.864;2024-01-27T19:42:58;34.50;;;18.85;;
53714;SDS011;39608;55.630;37.864;2024-01-27T19:48:00;36.83;;;18.70;;
53714;SDS011;39608;55.630;37.864;2024-01-27T19:53:04;45.78;;;19.05;;
53714;SDS011;39608;55.630;37.864;2024-01-27T19:58:10;35.80;;;18.90;;
53714;SDS011;39608;55.630;37.864;2024-01-27T20:03:12;41.72;;;18.80;;
53714;SDS011;39608;55.630;37.864;2024-01-27T20:08:15;37.13;;;17.90;;
53714;SDS011;39608;55.630;37.864;2024-01-27T20:13:17;39.45;;;19.90;;
53714;SDS011;39608;55.630;37.864;2024-01-27T20:18:19;35.90;;;18.08;;
53714;SDS011;39608;55.630;37.864;2024-01-27T20:23:23;41.70;;;19.23;;
53714;SDS011;39608;55.630;37.864;2024-01-27T20:28:24;46.38;;;19.95;;
53714;SDS011;39608;55.630;37.864;2024-01-27T20:33:26;45.90;;;21.73;;
53714;SDS011;39608;55.630;37.864;2024-01-27T20:38:30;39.92;;;18.90;;
53714;SDS011;39608;55.630;37.864;2024-01-27T20:43:32;42.15;;;20.63;;
53714;SDS011;39608;55.630;37.864;2024-01-27T20:48:34;42.40;;;20.20;;
53714;SDS011;39608;55.630;37.864;2024-01-27T20:53:37;37.45;;;18.35;;
53714;SDS011;39608;55.630;37.864;2024-01-27T20:58:40;45.65;;;21.23;;
53714;SDS011;39608;55.630;37.864;2024-01-27T21:03:43;37.58;;;19.70;;
53714;SDS011;39608;55.630;37.864;2024-01-27T21:08:47;33.28;;;19.00;;
53714;SDS011;39608;55.630;37.864;2024-01-27T21:13:49;37.50;;;19.23;;
53714;SDS011;39608;55.630;37.864;2024-01-27T21:18:51;37.05;;;18.75;;
53714;SDS011;39608;55.630;37.864;2024-01-27T21:23:54;32.97;;;18.08;;
53714;SDS011;39608;55.630;37.864;2024-01-27T21:28:56;38.55;;;18.77;;
53714;SDS011;39608;55.630;37.864;2024-01-27T21:33:59;38.20;;;20.17;;
53714;SDS011;39608;55.630;37.864;2024-01-27T21:39:02;36.10;;;19.58;;
53714;SDS011;39608;55.630;37.864;2024-01-27T21:44:04;39.97;;;19.83;;
53714;SDS011;39608;55.630;37.864;2024-01-27T21:49:07;39.35;;;18.65;;
53714;SDS011;39608;55.630;37.864;2024-01-27T21:54:11;37.85;;;17.45;;
53714;SDS011;39608;55.630;37.864;2024-01-27T21:59:12;42.42;;;18.90;;
53714;SDS011;39608;55.630;37.864;2024-01-27T22:04:16;32.13;;;17.42;;
53714;SDS011;39608;55.630;37.864;2024-01-27T22:09:19;36.60;;;19.20;;
53714;SDS011;39608;55.630;37.864;2024-01-27T22:14:22;34.75;;;17.75;;
53714;SDS011;39608;55.630;37.864;2024-01-27T22:19:24;37.47;;;17.73;;
53714;SDS011;39608;55.630;37.864;2024-01-27T22:24:27;38.42;;;17.98;;
53714;SDS011;39608;55.630;37.864;2024-01-27T22:29:29;33.63;;;18.48;;
53714;SDS011;39608;55.630;37.864;2024-01-27T22:34:31;37.40;;;17.42;;
53714;SDS011;39608;55.630;37.864;2024-01-27T22:39:35;37.28;;;18.35;;
53714;SDS011;39608;55.630;37.864;2024-01-27T22:44:40;39.97;;;19.03;;
53714;SDS011;39608;55.630;37.864;2024-01-27T22:49:42;35.38;;;17.67;;
53714;SDS011;39608;55.630;37.864;2024-01-27T22:54:45;35.30;;;18.48;;
53714;SDS011;39608;55.630;37.864;2024-01-27T22:59:48;43.20;;;18.90;;
53714;SDS011;39608;55.630;37.864;2024-01-27T23:04:50;38.28;;;19.13;;
53714;SDS011;39608;55.630;37.864;2024-01-27T23:09:54;42.28;;;19.65;;
53714;SDS011;39608;55.630;37.864;2024-01-27T23:14:56;40.33;;;18.55;;
53714;SDS011;39608;55.630;37.864;2024-01-27T23:19:58;35.55;;;18.73;;
53714;SDS011;39608;55.630;37.864;2024-01-27T23:25:01;38.33;;;18.77;;
53714;SDS011;39608;55.630;37.864;2024-01-27T23:30:05;37.03;;;17.40;;
53714;SDS011;39608;55.630;37.864;2024-01-27T23:35:09;36.90;;;17.75;;
53714;SDS011;39608;55.630;37.864;2024-01-27T23:40:13;33.38;;;17.75;;
53714;SDS011;39608;55.630;37.864;2024-01-27T23:45:15;37.42;;;17.33;;
53714;SDS011;39608;55.630;37.864;2024-01-27T23:50:17;37.42;;;16.98;;
53714;SDS011;39608;55.630;37.864;2024-01-27T23:55:21;34.67;;;17.00;;
